עמוד ראשי
METAR-TAF:

METAR-TAF

שדות תעופה :

סלמנקה, ספרד

קו רוחב: 40-57N, קו אורך: 005-30W, גובה: 793מטר

תצפית מזג אוויר נוכחית

הדו"ח נערך לפני 28דקות, בשעה 17:00 UTC
רוח 3קשר מכיוון צפון/צפון-מערב, משתנה בין צפון-מערב ו צפון-מזרח
טמפרטורת 35 צלסיוס
לחות 34%
לחץ 1021 hPa
ראות 10 קילומטר או יותר
ללא עננים שבסיסם נמוך מ 5000 רגל או קומולונימבוס

METAR: LESA 231700Z 34003KT 320V040 CAVOK 35/17 Q1021

זמן: 19:28 (17:28 UTC)

תחזית

הדו"ח נערך לפני 3 שעות ו 28דקות, בשעה 14:00 UTC
תחזית בתוקף מ 23 ב 15 UTC עד 24 ב 15 UTC
רוח 5קשר מכיוון צפון-מערב
ראות 10 קילומטר או יותר
ללא עננים שבסיסם נמוך מ 5000 רגל או קומולונימבוס

TAF: LESA 231400Z 2315/2415 32005KT CAVOK TX38/2415Z TN17/2405Z

תצפיות ותחזיות מזג אוויר לגבי יותר מ- 4,000 שדות תעופה ברחבי העולם. דוחות METAR ו- TAF.

התחנות הזמינות מסומנות בנקודות צהובות ואדומות על גבי המפה.

העבר את העכבר לנקודה הצבעונית על מנת לראות את שם התחנה.

לאחר מכן, לחץ כדי לראות את תוכן ואת תחזיות מזג האוויר.

כדי לשנות את המפה: לחץ על הכפתורים הירוקים עם הפלוס השחור כדי להתקרב; על הכפתור הירוק עם המקף כדי להתרחק; או בחיצים הירוקים למפות סמוכות.


METAR-TAF: